• Join FlightAware (Why Join?)
  • Login
  • US Flag 
10:26PM EDT


 

Airport Tracker/Info


-or-


 

Live Flight TrackerFlight Track Log ✈ VH-SFM ✈ 27-Jul-2013 ✈ YSBK / BWU - YSBK / BWU

Flight Track Log - Related Links

Times and Time Zones

All times are in EDT time to prevent confusion due to time zone crossing. See the VH-SFM flight status page for this flight to view local times or setup timezone preferences in your user account.

Time Position Orientation Groundspeed Altitude Reporting Facility
EDT Latitude Longitude Course Direction KTS MPH feet Rate Location/Type
08:58PM -33.9244 150.9884 55° Northeast 1,500  Level Aus ATC (Calculated)
08:59PM -33.7355 151.3142 63° Northeast 93 107 1,500 -120 Level Aus ATC (RADAR)
08:59PM -33.7312 151.3245 63° Northeast 91 105 1,400  Descending Aus ATC (RADAR)
09:00PM -33.7417 151.3087 231° Southwest 94 108 1,500 120 Climbing Aus ATC (RADAR)
09:01PM -33.7534 151.2975 218° Southwest 91 105 1,600 60 Climbing Aus ATC (RADAR)
09:01PM -33.7661 151.2858 217° Southwest 98 113 1,600  Level Aus ATC (RADAR)
09:02PM -33.7799 151.2738 216° Southwest 102 117 1,600  Level Aus ATC (RADAR)
09:02PM -33.7955 151.2608 215° Southwest 102 117 1,600 -60 Level Aus ATC (RADAR)
09:03PM -33.8193 151.2418 214° Southwest 101 116 1,500 -60 Descending Aus ATC (RADAR)
09:04PM -33.8371 151.2256 217° Southwest 91 105 1,500  Level Aus ATC (RADAR)
09:05PM -33.8483 151.2176 211° Southwest 81 93 1,500  Level Aus ATC (RADAR)
09:05PM -33.8484 151.2166 261° West 86 99 1,500  Level Aus ATC (RADAR)
09:06PM -33.8473 151.2176 39° Northeast 83 96 1,500  Level Aus ATC (RADAR)
09:07PM -33.8474 151.2301 90° East 85 98 1,500 60 Level Aus ATC (RADAR)
09:07PM -33.8402 151.2513 68° East 89 102 1,600 60 Climbing Aus ATC (RADAR)
09:08PM -33.8341 151.2688 67° East 95 109 1,600  Level Aus ATC (RADAR)
09:08PM -33.8273 151.2862 65° Northeast 95 109 1,600  Level Aus ATC (RADAR)
09:09PM -33.8185 151.3019 56° Northeast 99 114 1,600 -240 Level Aus ATC (RADAR)
09:10PM -33.8044 151.2939 335° Northwest 105 121 1,400 -120 Descending Aus ATC (RADAR)
09:10PM -33.7884 151.2926 356° North 102 117 1,500 60 Climbing Aus ATC (RADAR)
09:11PM -33.7761 151.3001 27° Northeast 99 114 1,500  Level Aus ATC (RADAR)
09:14PM -33.7339 151.2034 223° Southwest 1,500  Level Aus ATC (Calculated)
09:16PM -33.7670 151.1662 286° West  Level Estimated
09:17PM -33.7433 151.1475 327° Northwest  Level FlightAware Approximate
09:18PM -33.7197 151.1288 327° Northwest  Level FlightAware Approximate
09:19PM -33.6961 151.1102 327° Northwest  Level FlightAware Approximate
09:19PM -33.6917 151.1067 360° North 1,500  Level Aus ATC (Calculated)
09:21PM -33.6361 151.1067 North  Level FlightAware Approximate
09:22PM -33.6644 151.1067 180° South  Level FlightAware Approximate
09:23PM -33.6908 151.0947 232° Southwest  Level Estimated
09:24PM -33.7091 151.0688 230° Southwest  Level FlightAware Approximate
09:25PM -33.7275 151.0430 230° Southwest  Level FlightAware Approximate
09:25PM -33.8167 150.9167 50° Northeast  Level Aus ATC (Calculated)
09:26PM -33.7458 151.0171 230° Southwest  Level FlightAware Approximate
09:27PM -33.7875 150.9167 North  Level FlightAware Approximate
09:28PM -33.8158 150.9167 180° South  Level FlightAware Approximate
09:28PM -33.8706 150.9525 209° Southwest  Level Aus ATC (Calculated)
09:28PM -33.8706 150.9525 331° Northwest  Level Aus ATC (Calculated)
09:30PM -33.8363 150.9297 331° Northwest  Level FlightAware Approximate
09:31PM -33.8398 150.9321 151° Southeast  Level FlightAware Approximate
09:32PM -33.8646 150.9486 151° Southeast  Level FlightAware Approximate
09:33PM -33.9244 150.9884 151° Southeast  Level FlightAware Approximate
09:34PM -33.9244 150.9883 151° Southeast  Level Estimated
09:35PM -33.9244 150.9883 151° Southeast  Level Estimated
09:36PM -33.9244 150.9883 151° Southeast  Level Estimated
09:37PM -33.9244 150.9883 151° Southeast  Level Estimated
09:38PM -33.9244 150.9883 151° Southeast  Level Estimated
09:39PM -33.9244 150.9883 151° Southeast  Level Estimated
09:40PM -33.9244 150.9883 151° Southeast  Level Estimated
09:41PM -33.9244 150.9883 151° Southeast  Level Estimated
09:42PM -33.9244 150.9883 151° Southeast  Level Estimated
09:43PM -33.9244 150.9883 151° Southeast  Level Estimated
09:44PM -33.9244 150.9883 151° Southeast  Level Estimated
09:45PM -33.9244 150.9883 151° Southeast  Level Estimated
09:46PM -33.9244 150.9883 151° Southeast  Level Estimated
09:47PM -33.9244 150.9883 151° Southeast  Level Estimated
09:48PM -33.9244 150.9883 151° Southeast  Level Estimated
09:49PM -33.9244 150.9883 151° Southeast  Level Estimated
09:50PM -33.9244 150.9883 151° Southeast  Level Estimated
09:51PM -33.9244 150.9883 151° Southeast  Level Estimated
09:52PM -33.9244 150.9883 151° Southeast  Level Estimated
09:53PM -33.9244 150.9883 151° Southeast  Level Estimated
09:54PM -33.9244 150.9883 151° Southeast  Level Estimated
09:55PM -33.9244 150.9883 151° Southeast  Level Estimated
09:56PM -33.9244 150.9883 151° Southeast  Level Estimated
09:57PM -33.9244 150.9883 151° Southeast  Level Estimated
09:58PM -33.9244 150.9883 151° Southeast  Level Estimated
09:59PM -33.9244 150.9883 151° Southeast  Level Estimated